createdAt,value
2023-05-22T00:00:42.173Z,61.23
2023-05-22T00:01:42.167Z,60.75
2023-05-22T00:02:42.251Z,60.59
2023-05-22T00:03:42.162Z,59.62
2023-05-22T00:04:42.154Z,61.23
2023-05-22T00:05:42.125Z,61.23
2023-05-22T00:06:42.115Z,60.75
2023-05-22T00:07:42.118Z,61.71
2023-05-22T00:08:42.084Z,60.75
2023-05-22T00:09:42.078Z,60.26
2023-05-22T00:10:42.072Z,60.10
2023-05-22T00:11:42.076Z,61.23
2023-05-22T00:12:42.071Z,61.07
2023-05-22T00:13:42.058Z,60.75
2023-05-22T00:14:42.036Z,60.59
2023-05-22T00:15:42.033Z,61.39
2023-05-22T00:16:43.056Z,62.52
2023-05-22T00:17:42.051Z,60.75
2023-05-22T00:18:41.996Z,61.55
2023-05-22T00:19:41.976Z,61.87
2023-05-22T00:20:41.975Z,63.00
2023-05-22T00:21:41.964Z,61.07
2023-05-22T00:22:41.958Z,61.39
2023-05-22T00:23:41.946Z,61.55
2023-05-22T00:24:41.933Z,60.75
2023-05-22T00:25:41.943Z,61.07
2023-05-22T00:26:41.914Z,60.26
2023-05-22T00:27:41.901Z,60.75
2023-05-22T00:28:41.889Z,61.39
2023-05-22T00:29:41.872Z,60.91
2023-05-22T00:30:42.019Z,60.26
2023-05-22T00:31:41.883Z,61.23
2023-05-22T00:32:41.914Z,59.62
2023-05-22T00:33:41.844Z,61.39
2023-05-22T00:34:41.959Z,60.91
2023-05-22T00:35:41.846Z,60.26
2023-05-22T00:36:41.809Z,60.59
2023-05-22T00:37:41.809Z,60.26
2023-05-22T00:38:41.797Z,58.97
2023-05-22T00:39:41.780Z,59.46
2023-05-22T00:40:41.991Z,59.78
2023-05-22T00:41:41.761Z,59.46
2023-05-22T00:42:41.751Z,59.30
2023-05-22T00:43:41.739Z,60.26
2023-05-22T00:44:41.738Z,59.94
2023-05-22T00:45:41.745Z,59.62
2023-05-22T00:46:41.729Z,60.26
2023-05-22T00:47:42.709Z,60.42
2023-05-22T00:48:41.697Z,60.10
2023-05-22T00:49:41.692Z,59.78
2023-05-22T00:50:41.764Z,62.04
2023-05-22T00:51:41.661Z,60.26
2023-05-22T00:52:41.650Z,60.26
2023-05-22T00:53:41.639Z,60.26
2023-05-22T00:54:41.643Z,60.42
2023-05-22T00:55:41.615Z,60.10
2023-05-22T00:56:41.612Z,61.23
2023-05-22T00:57:41.598Z,61.39
2023-05-22T00:58:41.597Z,60.91
2023-05-22T00:59:41.591Z,61.23
2023-05-22T01:00:41.742Z,61.55
2023-05-22T01:01:41.615Z,60.75
2023-05-22T01:02:41.616Z,60.91
2023-05-22T01:03:41.631Z,61.07
2023-05-22T01:04:41.529Z,60.91
2023-05-22T01:05:41.577Z,62.52
2023-05-22T01:06:41.524Z,60.91
2023-05-22T01:07:41.504Z,62.52
2023-05-22T01:08:41.525Z,62.68
2023-05-22T01:09:41.483Z,60.91
2023-05-22T01:10:41.748Z,60.59
2023-05-22T01:11:42.465Z,61.55
2023-05-22T01:12:41.464Z,61.07
2023-05-22T01:13:41.442Z,61.87
2023-05-22T01:14:41.430Z,60.42
2023-05-22T01:15:41.418Z,62.84
2023-05-22T01:16:41.506Z,61.07
2023-05-22T01:17:41.435Z,60.75
2023-05-22T01:18:41.384Z,60.75
2023-05-22T01:19:41.375Z,60.26
2023-05-22T01:20:41.687Z,61.39
2023-05-22T01:21:41.355Z,60.26
2023-05-22T01:22:41.357Z,60.59
2023-05-22T01:23:41.344Z,60.59
2023-05-22T01:24:41.330Z,62.04
2023-05-22T01:25:41.322Z,60.59
2023-05-22T01:26:41.330Z,59.94
2023-05-22T01:27:41.302Z,62.36
2023-05-22T01:28:41.295Z,62.04
2023-05-22T01:29:41.317Z,63.16
2023-05-22T01:30:41.308Z,61.07
2023-05-22T01:31:41.361Z,61.55
2023-05-22T01:32:41.350Z,61.39
2023-05-22T01:33:41.369Z,61.07
2023-05-22T01:34:41.225Z,60.59
2023-05-22T01:35:41.222Z,62.52
2023-05-22T01:36:41.223Z,62.68
2023-05-22T01:37:41.194Z,61.71
2023-05-22T01:38:41.184Z,62.68
2023-05-22T01:39:41.175Z,61.87
2023-05-22T01:40:41.288Z,63.49
2023-05-22T01:41:41.182Z,61.07
2023-05-22T01:42:41.153Z,60.91
2023-05-22T01:43:41.154Z,62.36
2023-05-22T01:44:41.131Z,62.20
2023-05-22T01:45:41.285Z,62.20
2023-05-22T01:46:41.115Z,62.20
2023-05-22T01:47:41.146Z,61.87
2023-05-22T01:48:41.095Z,64.29
2023-05-22T01:49:41.083Z,61.23
2023-05-22T01:50:41.250Z,61.07
2023-05-22T01:51:41.064Z,60.59
2023-05-22T01:52:41.067Z,61.23
2023-05-22T01:53:41.044Z,63.49
2023-05-22T01:54:41.054Z,62.36
2023-05-22T01:55:41.051Z,62.20
2023-05-22T01:56:41.014Z,62.20
2023-05-22T01:57:41.018Z,61.07
2023-05-22T01:58:40.997Z,62.36
2023-05-22T01:59:41.003Z,62.36
2023-05-22T02:00:41.055Z,62.52
2023-05-22T02:01:41.023Z,62.04
2023-05-22T02:02:41.005Z,61.55
2023-05-22T02:03:40.978Z,62.84
2023-05-22T02:04:40.955Z,63.16
2023-05-22T02:05:40.942Z,63.16
2023-05-22T02:06:40.922Z,63.00
2023-05-22T02:07:40.907Z,63.81
2023-05-22T02:08:40.907Z,63.49
2023-05-22T02:09:40.901Z,63.49
2023-05-22T02:10:41.048Z,62.84
2023-05-22T02:11:40.875Z,62.68
2023-05-22T02:12:40.863Z,61.39
2023-05-22T02:13:40.869Z,63.16
2023-05-22T02:14:40.846Z,64.13
2023-05-22T02:15:40.859Z,61.87
2023-05-22T02:16:40.821Z,61.55
2023-05-22T02:17:40.867Z,60.91
2023-05-22T02:18:40.810Z,62.52
2023-05-22T02:19:40.806Z,63.16
2023-05-22T02:20:40.915Z,61.71
2023-05-22T02:21:40.771Z,61.55
2023-05-22T02:22:40.793Z,61.71
2023-05-22T02:23:40.763Z,62.52
2023-05-22T02:24:40.754Z,62.68
2023-05-22T02:25:40.738Z,63.00
2023-05-22T02:26:40.721Z,63.49
2023-05-22T02:27:40.731Z,62.84
2023-05-22T02:28:40.704Z,64.13
2023-05-22T02:29:40.702Z,62.68
2023-05-22T02:30:40.935Z,63.33
2023-05-22T02:31:40.843Z,62.84
2023-05-22T02:32:40.712Z,62.04
2023-05-22T02:33:40.653Z,61.71
2023-05-22T02:34:40.641Z,61.55
2023-05-22T02:35:40.627Z,62.68
2023-05-22T02:36:40.633Z,60.59
2023-05-22T02:37:40.628Z,62.84
2023-05-22T02:38:40.601Z,62.68
2023-05-22T02:39:40.596Z,61.55
2023-05-22T02:40:40.758Z,62.52
2023-05-22T02:41:40.584Z,63.16
2023-05-22T02:42:40.561Z,63.16
2023-05-22T02:43:40.554Z,60.10
2023-05-22T02:44:40.546Z,60.75
2023-05-22T02:45:40.527Z,59.94
2023-05-22T02:46:40.543Z,62.68
2023-05-22T02:47:40.567Z,63.16
2023-05-22T02:48:40.516Z,62.20
2023-05-22T02:49:40.498Z,63.00
2023-05-22T02:50:40.705Z,63.65
2023-05-22T02:51:40.483Z,63.81
2023-05-22T02:52:40.477Z,63.33
2023-05-22T02:53:40.484Z,64.94
2023-05-22T02:54:40.445Z,63.65
2023-05-22T02:55:40.445Z,64.45
2023-05-22T02:56:40.422Z,64.13
2023-05-22T02:57:40.414Z,62.36
2023-05-22T02:58:40.399Z,63.49
2023-05-22T02:59:40.390Z,63.00
2023-05-22T03:00:40.656Z,63.00
2023-05-22T03:01:40.390Z,64.29
2023-05-22T03:02:40.410Z,65.10
2023-05-22T03:03:40.420Z,64.13
2023-05-22T03:04:40.351Z,63.49
2023-05-22T03:05:40.343Z,63.81
2023-05-22T03:06:40.322Z,63.16
2023-05-22T03:07:40.310Z,64.94
2023-05-22T03:08:40.301Z,64.29
2023-05-22T03:09:40.298Z,64.13
2023-05-22T03:10:40.396Z,65.74
2023-05-22T03:11:40.277Z,63.00
2023-05-22T03:12:40.256Z,64.45
2023-05-22T03:13:40.247Z,63.33
2023-05-22T03:14:40.252Z,64.13
2023-05-22T03:15:40.231Z,64.78
2023-05-22T03:16:40.278Z,65.90
2023-05-22T03:17:40.222Z,63.81
2023-05-22T03:18:40.215Z,63.81
2023-05-22T03:19:40.200Z,64.61
2023-05-22T03:20:40.404Z,65.58
2023-05-22T03:21:40.171Z,64.13
2023-05-22T03:22:40.163Z,64.94
2023-05-22T03:23:40.176Z,66.87
2023-05-22T03:24:40.158Z,64.29
2023-05-22T03:25:40.147Z,63.49
2023-05-22T03:26:40.119Z,65.58
2023-05-22T03:27:40.111Z,64.45
2023-05-22T03:28:40.177Z,65.10
2023-05-22T03:29:40.096Z,66.39
2023-05-22T03:30:40.296Z,63.49
2023-05-22T03:31:40.075Z,65.42
2023-05-22T03:32:40.096Z,65.90
2023-05-22T03:33:40.077Z,65.58
2023-05-22T03:34:40.057Z,64.61
2023-05-22T03:35:40.043Z,65.26
2023-05-22T03:36:40.037Z,66.87
2023-05-22T03:37:40.044Z,66.87
2023-05-22T03:38:40.019Z,65.26
2023-05-22T03:39:39.997Z,65.90
2023-05-22T03:40:40.218Z,67.84
2023-05-22T03:41:39.971Z,67.03
2023-05-22T03:42:39.968Z,66.87
2023-05-22T03:43:41.108Z,64.78
2023-05-22T03:44:39.940Z,66.39
2023-05-22T03:45:39.945Z,65.74
2023-05-22T03:46:39.921Z,63.65
2023-05-22T03:47:39.997Z,66.23
2023-05-22T03:48:39.906Z,66.23
2023-05-22T03:49:39.893Z,65.58
2023-05-22T03:50:40.212Z,65.10
2023-05-22T03:51:39.869Z,67.19
2023-05-22T03:52:39.879Z,65.90
2023-05-22T03:53:39.855Z,66.55
2023-05-22T03:54:39.845Z,67.19
2023-05-22T03:55:39.840Z,66.55
2023-05-22T03:56:39.849Z,66.23
2023-05-22T03:57:39.837Z,66.06
2023-05-22T03:58:39.813Z,65.58
2023-05-22T03:59:39.791Z,66.23
2023-05-22T04:00:39.913Z,68.00
2023-05-22T04:01:39.781Z,67.35
2023-05-22T04:02:40.845Z,66.71
2023-05-22T04:03:39.798Z,67.19
2023-05-22T04:04:39.876Z,66.87
2023-05-22T04:05:39.780Z,64.61
2023-05-22T04:06:39.728Z,65.74
2023-05-22T04:07:39.718Z,65.10
2023-05-22T04:08:39.703Z,64.45
2023-05-22T04:09:39.699Z,65.58
2023-05-22T04:10:39.823Z,67.84
2023-05-22T04:11:39.674Z,66.23
2023-05-22T04:12:39.666Z,66.39
2023-05-22T04:13:39.652Z,65.58
2023-05-22T04:14:39.648Z,63.49
2023-05-22T04:15:39.676Z,65.26
2023-05-22T04:16:39.624Z,66.55
2023-05-22T04:17:39.645Z,65.90
2023-05-22T04:18:39.621Z,66.55
2023-05-22T04:19:39.592Z,65.42
2023-05-22T04:20:39.793Z,63.97
2023-05-22T04:21:39.578Z,65.10
2023-05-22T04:22:39.568Z,65.58
2023-05-22T04:23:39.556Z,66.55
2023-05-22T04:24:39.562Z,66.55
2023-05-22T04:25:39.552Z,65.26
2023-05-22T04:26:41.703Z,64.61
2023-05-22T04:28:11.422Z,67.35
2023-05-22T04:28:39.509Z,67.03
2023-05-22T04:29:39.506Z,65.74
2023-05-22T04:30:39.647Z,63.65
2023-05-22T04:31:39.540Z,65.74
2023-05-22T04:32:39.515Z,66.23
2023-05-22T04:33:39.475Z,66.55
2023-05-22T04:34:39.455Z,63.16
2023-05-22T04:35:39.437Z,65.90
2023-05-22T04:36:39.421Z,64.78
2023-05-22T04:37:40.415Z,64.78
2023-05-22T04:38:39.430Z,64.94
2023-05-22T04:39:39.412Z,64.13
2023-05-22T04:40:39.729Z,64.78
2023-05-22T04:41:39.370Z,64.29
2023-05-22T04:42:39.363Z,66.06
2023-05-22T04:43:39.363Z,66.23
2023-05-22T04:44:39.346Z,64.94
2023-05-22T04:45:39.333Z,64.29
2023-05-22T04:46:39.363Z,65.90
2023-05-22T04:47:39.360Z,66.39
2023-05-22T04:48:39.315Z,65.42
2023-05-22T04:49:39.298Z,64.45
2023-05-22T04:50:39.475Z,63.16
2023-05-22T04:51:39.273Z,64.78
2023-05-22T04:52:39.272Z,65.58
2023-05-22T04:53:39.254Z,66.55
2023-05-22T04:54:39.267Z,65.74
2023-05-22T04:55:39.228Z,63.81
2023-05-22T04:56:39.224Z,64.29
2023-05-22T04:57:39.222Z,63.00
2023-05-22T04:58:39.205Z,64.29
2023-05-22T04:59:39.233Z,65.26
2023-05-22T05:00:39.376Z,63.16
2023-05-22T05:01:39.260Z,63.33
2023-05-22T05:02:39.223Z,67.03
2023-05-22T05:03:39.252Z,63.00
2023-05-22T05:04:39.145Z,62.52
2023-05-22T05:05:39.135Z,63.81
2023-05-22T05:06:39.135Z,63.00
2023-05-22T05:07:39.321Z,61.71
2023-05-22T05:08:39.104Z,64.61
2023-05-22T05:09:39.097Z,64.45
2023-05-22T05:10:39.198Z,65.26
2023-05-22T05:11:39.081Z,64.78
2023-05-22T05:12:39.075Z,62.84
2023-05-22T05:13:39.065Z,63.65
2023-05-22T05:14:39.056Z,66.06
2023-05-22T05:15:39.051Z,64.94
2023-05-22T05:16:39.072Z,63.16
2023-05-22T05:17:39.044Z,61.71
2023-05-22T05:18:39.013Z,64.45
2023-05-22T05:19:39.119Z,64.45
2023-05-22T05:20:39.328Z,65.74
2023-05-22T05:21:38.992Z,64.61
2023-05-22T05:22:38.974Z,66.87
2023-05-22T05:23:38.970Z,64.61
2023-05-22T05:24:38.948Z,63.65
2023-05-22T05:25:38.949Z,64.13
2023-05-22T05:26:38.930Z,65.74
2023-05-22T05:27:38.920Z,65.74
2023-05-22T05:28:38.912Z,65.42
2023-05-22T05:29:38.926Z,65.26
2023-05-22T05:30:39.064Z,65.58
2023-05-22T05:31:38.919Z,63.00
2023-05-22T05:32:38.922Z,64.94
2023-05-22T05:33:38.867Z,65.90
2023-05-22T05:34:38.863Z,63.65
2023-05-22T05:35:40.772Z,66.71
2023-05-22T05:36:38.837Z,64.13
2023-05-22T05:37:38.822Z,65.42
2023-05-22T05:38:38.821Z,63.81
2023-05-22T05:39:38.817Z,63.33
2023-05-22T05:40:39.007Z,64.61
2023-05-22T05:41:38.819Z,63.65
2023-05-22T05:42:38.775Z,63.49
2023-05-22T05:43:38.776Z,64.13
2023-05-22T05:44:38.776Z,63.65
2023-05-22T05:45:38.751Z,65.42
2023-05-22T05:46:38.834Z,67.03
2023-05-22T05:47:39.031Z,67.19
2023-05-22T05:48:38.767Z,64.61
2023-05-22T05:49:38.699Z,63.81
2023-05-22T05:50:39.071Z,66.55
2023-05-22T05:51:38.689Z,65.42
2023-05-22T05:52:38.672Z,64.78
2023-05-22T05:53:38.670Z,66.39
2023-05-22T05:54:38.652Z,64.29
2023-05-22T05:55:38.633Z,67.19
2023-05-22T05:56:38.632Z,66.23
2023-05-22T05:57:38.639Z,64.13
2023-05-22T05:58:38.633Z,65.42
2023-05-22T05:59:38.601Z,64.29
2023-05-22T06:00:38.691Z,65.10
2023-05-22T06:01:38.645Z,64.45
2023-05-22T06:02:38.656Z,64.78
2023-05-22T06:03:38.681Z,65.26
2023-05-22T06:04:38.550Z,64.78
2023-05-22T06:05:38.628Z,63.97
2023-05-22T06:06:38.529Z,64.29
2023-05-22T06:07:38.540Z,63.33
2023-05-22T06:08:38.525Z,68.00
2023-05-22T06:09:38.534Z,65.10
2023-05-22T06:10:38.663Z,64.61
2023-05-22T06:11:38.514Z,66.55
2023-05-22T06:12:38.480Z,64.13
2023-05-22T06:13:38.463Z,61.71
2023-05-22T06:14:38.459Z,64.78
2023-05-22T06:15:38.469Z,64.78
2023-05-22T06:16:38.497Z,65.58
2023-05-22T06:17:38.439Z,65.58
2023-05-22T06:18:38.418Z,64.61
2023-05-22T06:19:38.444Z,65.74
2023-05-22T06:20:38.523Z,64.94
2023-05-22T06:21:38.412Z,63.33
2023-05-22T06:22:38.389Z,63.16
2023-05-22T06:23:38.374Z,66.23
2023-05-22T06:24:38.361Z,63.97
2023-05-22T06:25:38.363Z,62.68
2023-05-22T06:26:38.354Z,63.33
2023-05-22T06:27:38.331Z,64.13
2023-05-22T06:28:38.338Z,64.61
2023-05-22T06:29:38.312Z,65.90
2023-05-22T06:30:40.391Z,64.45
2023-05-22T06:31:40.348Z,65.42
2023-05-22T06:32:38.472Z,63.49
2023-05-22T06:33:38.444Z,65.42
2023-05-22T06:34:38.266Z,64.45
2023-05-22T06:35:38.265Z,65.42
2023-05-22T06:36:38.255Z,64.29
2023-05-22T06:37:38.232Z,63.49
2023-05-22T06:38:38.220Z,62.52
2023-05-22T06:39:38.226Z,65.42
2023-05-22T06:40:38.361Z,65.42
2023-05-22T06:41:38.248Z,64.61
2023-05-22T06:42:38.181Z,64.13
2023-05-22T06:43:38.171Z,66.23
2023-05-22T06:44:38.175Z,65.90
2023-05-22T06:45:38.159Z,64.45
2023-05-22T06:46:38.211Z,64.61
2023-05-22T06:47:38.140Z,63.65
2023-05-22T06:48:38.118Z,64.45
2023-05-22T06:49:38.122Z,65.42
2023-05-22T06:50:38.240Z,63.49
2023-05-22T06:51:38.098Z,63.81
2023-05-22T06:52:38.079Z,64.45
2023-05-22T06:53:38.088Z,63.00
2023-05-22T06:54:38.074Z,63.33
2023-05-22T06:55:38.075Z,63.97
2023-05-22T06:56:38.042Z,63.16
2023-05-22T06:57:38.032Z,63.65
2023-05-22T06:58:38.032Z,64.29
2023-05-22T06:59:38.010Z,61.87
2023-05-22T07:00:38.144Z,63.81
2023-05-22T07:01:38.070Z,65.90
2023-05-22T07:02:37.996Z,64.45
2023-05-22T07:03:37.982Z,63.00
2023-05-22T07:04:37.962Z,64.45
2023-05-22T07:05:37.979Z,65.26
2023-05-22T07:06:37.941Z,64.78
2023-05-22T07:07:37.947Z,64.78
2023-05-22T07:08:37.931Z,65.90
2023-05-22T07:09:37.914Z,65.42
2023-05-22T07:10:38.003Z,64.13
2023-05-22T07:11:37.908Z,63.16
2023-05-22T07:12:37.889Z,63.49
2023-05-22T07:13:37.868Z,64.94
2023-05-22T07:14:37.864Z,63.97
2023-05-22T07:15:37.854Z,63.33
2023-05-22T07:16:37.858Z,64.61
2023-05-22T07:17:37.862Z,64.94
2023-05-22T07:18:37.830Z,64.94
2023-05-22T07:19:37.835Z,62.84
2023-05-22T07:20:38.104Z,65.42
2023-05-22T07:21:38.806Z,63.16
2023-05-22T07:22:37.793Z,63.81
2023-05-22T07:23:37.771Z,62.52
2023-05-22T07:24:37.764Z,62.68
2023-05-22T07:25:37.751Z,62.04
2023-05-22T07:26:37.757Z,61.71
2023-05-22T07:27:37.737Z,63.65
2023-05-22T07:28:37.732Z,62.04
2023-05-22T07:29:37.716Z,61.23
2023-05-22T07:30:37.881Z,62.68
2023-05-22T07:31:37.794Z,60.10
2023-05-22T07:32:37.786Z,61.87
2023-05-22T07:33:37.674Z,63.49
2023-05-22T07:34:37.783Z,61.07
2023-05-22T07:35:37.725Z,62.84
2023-05-22T07:36:37.654Z,59.30
2023-05-22T07:37:37.680Z,60.42
2023-05-22T07:38:37.628Z,60.26
2023-05-22T07:39:37.625Z,61.39
2023-05-22T07:40:37.865Z,61.07
2023-05-22T07:41:37.623Z,60.91
2023-05-22T07:42:37.601Z,61.23
2023-05-22T07:43:37.612Z,63.81
2023-05-22T07:44:37.759Z,63.00
2023-05-22T07:45:37.734Z,60.91
2023-05-22T07:46:37.799Z,60.59
2023-05-22T07:47:37.550Z,62.84
2023-05-22T07:48:37.529Z,61.39
2023-05-22T07:49:37.529Z,61.39
2023-05-22T07:50:37.542Z,62.20
2023-05-22T07:51:37.938Z,58.81
2023-05-22T07:52:37.489Z,60.10
2023-05-22T07:53:37.478Z,58.81
2023-05-22T07:54:37.519Z,61.39
2023-05-22T07:55:38.568Z,62.68
2023-05-22T07:56:37.458Z,61.55
2023-05-22T07:57:37.443Z,60.91
2023-05-22T07:58:37.430Z,62.20
2023-05-22T07:59:37.431Z,60.59
2023-05-22T08:00:37.421Z,64.29
2023-05-22T08:01:37.409Z,63.49
2023-05-22T08:02:37.504Z,60.42
2023-05-22T08:03:37.493Z,59.14
2023-05-22T08:04:37.482Z,60.10
2023-05-22T08:05:37.358Z,62.20
2023-05-22T08:06:37.367Z,63.16
2023-05-22T08:07:37.346Z,61.71
2023-05-22T08:08:37.339Z,60.75
2023-05-22T08:09:37.331Z,60.26
2023-05-22T08:11:39.830Z,60.26
2023-05-22T08:12:38.305Z,62.20
2023-05-22T08:13:37.298Z,61.39
2023-05-22T08:14:37.338Z,62.52
2023-05-22T08:15:37.257Z,61.07
2023-05-22T08:16:37.325Z,61.71
2023-05-22T08:17:37.305Z,62.84
2023-05-22T08:18:37.749Z,60.26
2023-05-22T08:19:37.410Z,61.87
2023-05-22T08:20:37.251Z,62.20
2023-05-22T08:21:37.202Z,61.87
2023-05-22T08:22:37.199Z,61.07
2023-05-22T08:23:37.184Z,62.36
2023-05-22T08:24:37.172Z,61.71
2023-05-22T08:25:37.267Z,61.07
2023-05-22T08:26:37.149Z,61.39
2023-05-22T08:27:37.154Z,61.71
2023-05-22T08:28:37.150Z,63.65
2023-05-22T08:29:37.124Z,63.49
2023-05-22T08:30:37.293Z,63.81
2023-05-22T08:31:37.164Z,63.49
2023-05-22T08:32:37.120Z,62.36
2023-05-22T08:33:37.088Z,62.36
2023-05-22T08:34:37.072Z,63.16
2023-05-22T08:35:37.079Z,63.49
2023-05-22T08:36:37.068Z,64.61
2023-05-22T08:37:37.049Z,62.68
2023-05-22T08:38:37.041Z,63.49
2023-05-22T08:39:37.026Z,62.20
2023-05-22T08:40:37.119Z,62.36
2023-05-22T08:41:37.045Z,61.23
2023-05-22T08:42:37.003Z,62.04
2023-05-22T08:43:36.987Z,63.97
2023-05-22T08:44:36.993Z,63.97
2023-05-22T08:45:37.009Z,63.00
2023-05-22T08:46:36.989Z,64.45
2023-05-22T08:47:36.981Z,62.68
2023-05-22T08:48:36.966Z,62.20
2023-05-22T08:49:36.920Z,62.52
2023-05-22T08:50:37.042Z,61.71
2023-05-22T08:51:36.906Z,61.87
2023-05-22T08:52:36.886Z,61.23
2023-05-22T08:53:36.878Z,61.39
2023-05-22T08:54:36.896Z,60.59
2023-05-22T08:55:37.262Z,61.23
2023-05-22T08:56:39.857Z,60.75
2023-05-22T08:57:39.139Z,61.07
2023-05-22T08:58:36.828Z,59.62
2023-05-22T08:59:36.834Z,60.91
2023-05-22T09:00:38.028Z,61.55
2023-05-22T09:01:36.884Z,59.78
2023-05-22T09:02:36.812Z,60.10
2023-05-22T09:03:36.876Z,60.75
2023-05-22T09:04:36.812Z,60.91
2023-05-22T09:05:36.770Z,62.52
2023-05-22T09:06:36.760Z,63.49
2023-05-22T09:07:37.205Z,61.71
2023-05-22T09:08:36.751Z,61.23
2023-05-22T09:09:36.745Z,60.42
2023-05-22T09:10:37.357Z,60.59
2023-05-22T09:11:36.722Z,61.07
2023-05-22T09:12:36.707Z,60.59
2023-05-22T09:13:36.950Z,62.20
2023-05-22T09:14:36.694Z,60.91
2023-05-22T09:15:36.682Z,59.46
2023-05-22T09:16:36.703Z,60.91
2023-05-22T09:17:36.669Z,60.26
2023-05-22T09:18:36.653Z,61.39
2023-05-22T09:19:36.648Z,60.10
2023-05-22T09:20:36.643Z,60.10
2023-05-22T09:21:36.615Z,60.10
2023-05-22T09:22:36.602Z,60.10
2023-05-22T09:23:36.608Z,61.07
2023-05-22T09:24:36.588Z,61.23
2023-05-22T09:25:36.574Z,60.10
2023-05-22T09:26:37.061Z,61.55
2023-05-22T09:27:36.571Z,59.78
2023-05-22T09:28:36.558Z,60.42
2023-05-22T09:29:36.558Z,61.71
2023-05-22T09:30:36.579Z,61.71
2023-05-22T09:31:36.550Z,63.00
2023-05-22T09:32:36.548Z,62.04
2023-05-22T09:33:36.501Z,63.49
2023-05-22T09:34:36.520Z,62.20
2023-05-22T09:35:36.489Z,60.42
2023-05-22T09:36:36.486Z,60.75
2023-05-22T09:37:36.587Z,61.07
2023-05-22T09:38:36.458Z,62.68
2023-05-22T09:39:36.447Z,62.52
2023-05-22T09:40:36.463Z,61.55
2023-05-22T09:41:36.460Z,63.33
2023-05-22T09:42:36.424Z,63.33
2023-05-22T09:43:36.424Z,61.71
2023-05-22T09:44:36.405Z,62.68
2023-05-22T09:45:36.595Z,61.87
2023-05-22T09:46:36.552Z,60.10
2023-05-22T09:47:36.549Z,61.87
2023-05-22T09:48:36.388Z,62.68
2023-05-22T09:49:36.358Z,59.62
2023-05-22T09:50:36.396Z,59.30
2023-05-22T09:51:36.349Z,61.23
2023-05-22T09:52:36.327Z,60.42
2023-05-22T09:53:36.350Z,59.62
2023-05-22T09:54:36.309Z,61.39
2023-05-22T09:55:36.310Z,60.10
2023-05-22T09:56:39.747Z,60.10
2023-05-22T09:57:37.278Z,62.20
2023-05-22T09:58:36.278Z,61.23
2023-05-22T09:59:36.270Z,62.84
2023-05-22T10:00:36.258Z,61.07
2023-05-22T10:01:36.321Z,60.91
2023-05-22T10:02:36.241Z,60.10
2023-05-22T10:03:36.217Z,61.07
2023-05-22T10:04:36.242Z,62.20
2023-05-22T10:05:36.221Z,62.36
2023-05-22T10:06:36.197Z,60.10
2023-05-22T10:07:36.188Z,61.07
2023-05-22T10:08:36.219Z,60.42
2023-05-22T10:09:36.171Z,60.75
2023-05-22T10:10:36.146Z,59.30
2023-05-22T10:11:36.153Z,61.55
2023-05-22T10:12:36.124Z,61.07
2023-05-22T10:13:36.112Z,61.07
2023-05-22T10:14:36.122Z,61.07
2023-05-22T10:15:36.111Z,60.75
2023-05-22T10:16:36.133Z,60.91
2023-05-22T10:17:36.204Z,61.39
2023-05-22T10:18:36.074Z,62.04
2023-05-22T10:19:37.792Z,61.23
2023-05-22T10:20:36.064Z,60.75
2023-05-22T10:21:36.034Z,59.46
2023-05-22T10:22:36.498Z,60.75
2023-05-22T10:23:36.029Z,61.71
2023-05-22T10:24:36.008Z,61.07
2023-05-22T10:25:35.996Z,61.07
2023-05-22T10:26:36.382Z,61.39
2023-05-22T10:28:07.891Z,60.59
2023-05-22T10:28:35.965Z,60.26
2023-05-22T10:29:35.980Z,60.10
2023-05-22T10:30:35.960Z,60.10
2023-05-22T10:31:35.972Z,60.91
2023-05-22T10:32:35.974Z,59.94
2023-05-22T10:33:36.040Z,59.62
2023-05-22T10:34:36.911Z,60.10
2023-05-22T10:35:35.916Z,59.46
2023-05-22T10:36:36.063Z,60.59
2023-05-22T10:37:35.889Z,61.71
2023-05-22T10:38:35.896Z,59.62
2023-05-22T10:39:35.883Z,59.30
2023-05-22T10:40:43.113Z,59.78
2023-05-22T10:41:36.869Z,59.62
2023-05-22T10:42:35.851Z,59.62
2023-05-22T10:43:35.825Z,59.14
2023-05-22T10:44:35.827Z,59.30
2023-05-22T10:45:35.896Z,59.62
2023-05-22T10:46:35.852Z,58.97
2023-05-22T10:47:35.830Z,60.42
2023-05-22T10:48:35.777Z,59.62
2023-05-22T10:49:36.869Z,58.97
2023-05-22T10:50:35.780Z,59.62
2023-05-22T10:51:35.768Z,59.94
2023-05-22T10:52:35.751Z,58.65
2023-05-22T10:53:35.771Z,59.62
2023-05-22T10:54:35.732Z,59.78
2023-05-22T10:55:35.734Z,59.94
2023-05-22T10:56:35.751Z,59.62
2023-05-22T10:57:35.710Z,59.46
2023-05-22T10:58:35.697Z,60.10
2023-05-22T10:59:35.690Z,61.07
2023-05-22T11:00:35.686Z,60.75
2023-05-22T11:01:35.756Z,60.42
2023-05-22T11:02:35.673Z,60.75
2023-05-22T11:03:35.720Z,60.10
2023-05-22T11:04:35.661Z,60.10
2023-05-22T11:05:35.761Z,60.10
2023-05-22T11:06:35.627Z,60.42
2023-05-22T11:07:35.617Z,59.62
2023-05-22T11:08:35.607Z,59.14
2023-05-22T11:09:35.607Z,55.91
2023-05-22T11:10:35.660Z,58.81
2023-05-22T11:11:35.583Z,58.81
2023-05-22T11:12:35.572Z,59.78
2023-05-22T11:13:35.563Z,58.49
2023-05-22T11:14:35.564Z,59.62
2023-05-22T11:15:35.547Z,58.33
2023-05-22T11:16:35.553Z,57.52
2023-05-22T11:17:35.576Z,60.26
2023-05-22T11:18:35.526Z,60.91
2023-05-22T11:19:35.609Z,59.94
2023-05-22T11:20:35.497Z,59.62
2023-05-22T11:21:35.660Z,60.91
2023-05-22T11:22:36.489Z,59.78
2023-05-22T11:23:35.501Z,60.59
2023-05-22T11:24:35.490Z,59.14
2023-05-22T11:25:35.504Z,60.10
2023-05-22T11:26:35.456Z,61.55
2023-05-22T11:27:35.446Z,59.30
2023-05-22T11:28:35.454Z,58.33
2023-05-22T11:29:35.439Z,60.26
2023-05-22T11:30:35.408Z,60.75
2023-05-22T11:31:35.430Z,60.91
2023-05-22T11:32:35.466Z,59.46
2023-05-22T11:33:35.399Z,60.26
2023-05-22T11:34:35.380Z,62.20
2023-05-22T11:35:35.370Z,60.75
2023-05-22T11:36:35.358Z,63.97
2023-05-22T11:37:35.455Z,61.39
2023-05-22T11:38:35.350Z,62.20
2023-05-22T11:39:35.335Z,60.42
2023-05-22T11:40:35.321Z,60.10
2023-05-22T11:41:36.342Z,61.55
2023-05-22T11:42:35.346Z,60.42
2023-05-22T11:43:35.306Z,64.29
2023-05-22T11:44:35.281Z,62.68
2023-05-22T11:45:35.272Z,62.20
2023-05-22T11:46:35.335Z,60.26
2023-05-22T11:47:35.334Z,60.91
2023-05-22T11:48:35.255Z,62.84
2023-05-22T11:49:35.255Z,60.10
2023-05-22T11:50:42.306Z,60.10
2023-05-22T11:51:37.244Z,62.84
2023-05-22T11:52:35.230Z,62.52
2023-05-22T11:53:35.302Z,60.91
2023-05-22T11:54:37.796Z,60.26
2023-05-22T11:55:36.231Z,60.59
2023-05-22T11:56:35.195Z,60.10
2023-05-22T11:57:35.163Z,61.71
2023-05-22T11:58:35.168Z,61.07
2023-05-22T11:59:35.145Z,60.10
2023-05-22T12:00:35.209Z,60.26
2023-05-22T12:01:35.153Z,62.20
2023-05-22T12:02:35.299Z,59.46
2023-05-22T12:03:35.292Z,61.23
2023-05-22T12:04:35.111Z,61.23
2023-05-22T12:05:35.108Z,61.87
2023-05-22T12:06:35.116Z,62.68
2023-05-22T12:07:35.105Z,63.65
2023-05-22T12:08:35.095Z,61.87
2023-05-22T12:09:35.148Z,61.71
2023-05-22T12:10:35.064Z,61.55
2023-05-22T12:11:35.046Z,61.87
2023-05-22T12:12:35.024Z,60.42
2023-05-22T12:13:35.023Z,60.26
2023-05-22T12:14:35.026Z,61.23
2023-05-22T12:15:35.022Z,59.94
2023-05-22T12:16:35.080Z,59.14
2023-05-22T12:17:34.982Z,59.46
2023-05-22T12:18:34.976Z,60.42
2023-05-22T12:19:35.031Z,60.26
2023-05-22T12:20:35.023Z,60.59
2023-05-22T12:21:34.943Z,60.10
2023-05-22T12:22:34.932Z,59.94
2023-05-22T12:23:34.947Z,60.26
2023-05-22T12:24:34.982Z,60.10
2023-05-22T12:25:34.941Z,60.42
2023-05-22T12:26:34.897Z,61.23
2023-05-22T12:27:36.534Z,62.52
2023-05-22T12:28:34.884Z,61.23
2023-05-22T12:29:34.893Z,61.07
2023-05-22T12:30:34.866Z,62.36
2023-05-22T12:31:34.874Z,61.23
2023-05-22T12:32:34.871Z,59.94
2023-05-22T12:33:34.845Z,59.46
2023-05-22T12:34:34.841Z,60.91
2023-05-22T12:35:34.815Z,62.04
2023-05-22T12:36:34.805Z,62.04
2023-05-22T12:37:34.795Z,59.46
2023-05-22T12:38:35.590Z,60.10
2023-05-22T12:39:35.782Z,60.59
2023-05-22T12:40:34.784Z,60.59
2023-05-22T12:41:34.850Z,62.04
2023-05-22T12:42:34.753Z,60.91
2023-05-22T12:43:34.747Z,62.20
2023-05-22T12:44:34.730Z,62.52
2023-05-22T12:45:34.721Z,60.42
2023-05-22T12:46:34.817Z,61.39
2023-05-22T12:47:34.743Z,62.68
2023-05-22T12:48:34.710Z,63.00
2023-05-22T12:49:34.698Z,60.91
2023-05-22T12:50:34.674Z,63.81
2023-05-22T12:51:34.678Z,61.39
2023-05-22T12:52:34.666Z,61.55
2023-05-22T12:53:34.649Z,60.10